createdAt,value
2019-02-26T00:01:30.874Z,59.10
2019-02-26T00:04:00.454Z,59.00
2019-02-26T00:06:30.266Z,59.10
2019-02-26T00:09:01.826Z,59.40
2019-02-26T00:11:32.940Z,60.10
2019-02-26T00:14:01.989Z,60.20
2019-02-26T00:16:35.257Z,60.10
2019-02-26T00:19:04.619Z,60.70
2019-02-26T00:21:33.503Z,61.20
2019-02-26T00:24:04.861Z,61.70
2019-02-26T00:26:34.509Z,61.80
2019-02-26T00:29:06.720Z,60.60
2019-02-26T00:31:36.073Z,61.30
2019-02-26T00:34:05.922Z,61.10
2019-02-26T00:36:38.126Z,61.20
2019-02-26T00:39:07.584Z,61.50
2019-02-26T00:41:37.030Z,62.00
2019-02-26T00:44:06.602Z,61.40
2019-02-26T00:46:36.983Z,60.90
2019-02-26T00:49:07.671Z,60.90
2019-02-26T00:51:39.798Z,62.20
2019-02-26T00:54:08.551Z,63.60
2019-02-26T00:56:38.634Z,64.80
2019-02-26T00:59:09.185Z,65.10
2019-02-26T01:01:38.638Z,65.20
2019-02-26T01:04:08.045Z,65.50
2019-02-26T01:06:37.506Z,65.40
2019-02-26T01:09:09.345Z,63.50
2019-02-26T01:11:39.239Z,62.30
2019-02-26T01:14:08.645Z,62.00
2019-02-26T01:16:39.447Z,62.80
2019-02-26T01:19:10.819Z,62.70
2019-02-26T01:21:40.159Z,62.40
2019-02-26T01:24:09.563Z,61.90
2019-02-26T01:26:42.514Z,62.20
2019-02-26T01:29:10.039Z,63.40
2019-02-26T01:31:57.395Z,63.80
2019-02-26T01:34:26.823Z,64.90
2019-02-26T01:36:56.261Z,65.70
2019-02-26T01:39:25.699Z,66.00
2019-02-26T01:41:56.344Z,65.60
2019-02-26T01:44:28.054Z,66.20
2019-02-26T01:46:58.309Z,65.60
2019-02-26T01:49:28.564Z,66.00
2019-02-26T01:51:57.962Z,65.90
2019-02-26T01:54:28.286Z,65.20
2019-02-26T01:56:58.429Z,66.00
2019-02-26T01:59:27.835Z,66.30
2019-02-26T02:01:57.278Z,66.30
2019-02-26T02:04:26.694Z,65.10
2019-02-26T02:06:57.100Z,65.00
2019-02-26T02:09:27.229Z,64.80
2019-02-26T02:11:57.371Z,66.00
2019-02-26T02:14:27.673Z,67.00
2019-02-26T02:16:57.077Z,67.50
2019-02-26T02:19:27.609Z,67.90
2019-02-26T02:21:58.271Z,67.10
2019-02-26T02:24:28.000Z,66.30
2019-02-26T02:26:58.456Z,65.90
2019-02-26T02:29:28.642Z,64.90
2019-02-26T02:32:00.650Z,64.80
2019-02-26T02:34:30.176Z,64.30
2019-02-26T02:37:00.204Z,64.30
2019-02-26T02:39:29.644Z,64.00
2019-02-26T02:41:59.079Z,63.80
2019-02-26T02:44:28.499Z,64.90
2019-02-26T02:46:58.602Z,65.90
2019-02-26T02:49:29.615Z,67.80
2019-02-26T02:52:01.480Z,68.80
2019-02-26T02:54:31.086Z,69.00
2019-02-26T02:57:02.398Z,69.80
2019-02-26T02:59:34.066Z,68.90
2019-02-26T03:02:02.572Z,67.10
2019-02-26T03:04:34.755Z,66.80
2019-02-26T03:07:03.240Z,68.80
2019-02-26T03:09:35.369Z,69.60
2019-02-26T03:12:03.835Z,69.90
2019-02-26T03:14:35.794Z,68.90
2019-02-26T03:17:06.387Z,68.20
2019-02-26T03:19:37.612Z,67.50
2019-02-26T03:22:07.273Z,67.80
2019-02-26T03:24:37.479Z,68.70
2019-02-26T03:27:06.931Z,68.00
2019-02-26T03:29:36.366Z,67.80
2019-02-26T03:32:05.782Z,68.50
2019-02-26T03:34:35.208Z,69.40
2019-02-26T03:37:06.275Z,69.80
2019-02-26T03:39:35.667Z,70.20
2019-02-26T03:42:05.094Z,70.50
2019-02-26T03:44:34.496Z,70.10
2019-02-26T03:47:03.923Z,69.00
2019-02-26T03:49:33.354Z,68.40
2019-02-26T03:52:02.784Z,67.10
2019-02-26T03:54:32.194Z,66.30
2019-02-26T03:57:01.947Z,65.70
2019-02-26T03:59:31.349Z,65.70
2019-02-26T04:02:01.057Z,66.10
2019-02-26T04:04:31.122Z,66.10
2019-02-26T04:07:04.118Z,66.00
2019-02-26T04:09:32.704Z,66.40
2019-02-26T04:12:02.111Z,67.00
2019-02-26T04:14:31.539Z,67.10
2019-02-26T04:17:03.548Z,68.50
2019-02-26T04:19:32.125Z,69.40
2019-02-26T04:22:27.586Z,69.50
2019-02-26T04:25:06.387Z,70.30
2019-02-26T04:28:08.158Z,70.00
2019-02-26T04:30:58.653Z,71.00
2019-02-26T04:33:46.334Z,71.90
2019-02-26T04:36:20.335Z,70.60
2019-02-26T04:39:07.498Z,70.70
2019-02-26T04:41:39.387Z,70.00
2019-02-26T04:44:19.446Z,69.50
2019-02-26T04:46:54.024Z,71.00
2019-02-26T04:49:27.100Z,72.10
2019-02-26T04:51:54.443Z,70.60
2019-02-26T04:54:27.155Z,69.50
2019-02-26T04:56:56.151Z,69.70
2019-02-26T04:59:25.625Z,70.90
2019-02-26T05:01:56.970Z,72.20
2019-02-26T05:04:28.027Z,73.00
2019-02-26T05:06:57.155Z,73.50
2019-02-26T05:09:27.424Z,72.30
2019-02-26T05:11:57.655Z,71.50
2019-02-26T05:14:27.099Z,71.80
2019-02-26T05:16:56.627Z,72.20
2019-02-26T05:19:26.112Z,73.30
2019-02-26T05:21:56.771Z,73.10
2019-02-26T05:24:26.644Z,73.30
2019-02-26T05:26:56.130Z,73.00
2019-02-26T05:29:25.574Z,73.30
2019-02-26T05:31:55.668Z,73.40
2019-02-26T05:34:26.118Z,72.20
2019-02-26T05:36:55.556Z,72.80
2019-02-26T05:39:26.749Z,72.50
2019-02-26T05:41:58.891Z,71.70
2019-02-26T05:44:27.130Z,70.80
2019-02-26T05:46:58.712Z,70.30
2019-02-26T05:49:27.625Z,70.20
2019-02-26T05:51:59.290Z,71.70
2019-02-26T05:54:28.108Z,73.20
2019-02-26T05:56:57.515Z,74.40
2019-02-26T05:59:26.983Z,73.20
2019-02-26T06:01:58.444Z,71.70
2019-02-26T06:04:27.434Z,70.20
2019-02-26T06:06:58.974Z,69.90
2019-02-26T06:09:30.444Z,70.70
2019-02-26T06:11:59.023Z,70.70
2019-02-26T06:14:31.180Z,69.60
2019-02-26T06:16:59.481Z,70.30
2019-02-26T06:19:42.339Z,72.50
2019-02-26T06:22:17.192Z,73.30
2019-02-26T06:24:43.239Z,73.60
2019-02-26T06:27:13.794Z,74.50
2019-02-26T06:29:43.799Z,75.10
2019-02-26T06:32:15.922Z,75.70
2019-02-26T06:34:45.365Z,74.00
2019-02-26T06:37:19.434Z,73.70
2019-02-26T06:39:52.695Z,73.40
2019-02-26T06:42:21.556Z,73.40
2019-02-26T06:44:51.443Z,72.20
2019-02-26T06:47:23.016Z,70.80
2019-02-26T06:49:54.186Z,70.80
2019-02-26T06:53:04.418Z,72.10
2019-02-26T06:55:31.962Z,73.30
2019-02-26T06:58:18.939Z,73.80
2019-02-26T07:00:52.561Z,74.20
2019-02-26T07:03:19.551Z,72.20
2019-02-26T07:05:48.958Z,70.80
2019-02-26T07:08:19.047Z,71.10
2019-02-26T07:10:49.472Z,71.90
2019-02-26T07:13:18.937Z,73.40
2019-02-26T07:15:48.342Z,73.90
2019-02-26T07:18:19.679Z,74.50
2019-02-26T07:20:51.919Z,74.50
2019-02-26T07:23:20.059Z,74.60
2019-02-26T07:25:49.453Z,74.40
2019-02-26T07:28:20.603Z,74.30
2019-02-26T07:30:49.913Z,73.60
2019-02-26T07:33:19.372Z,73.00
2019-02-26T07:35:48.792Z,72.70
2019-02-26T07:38:20.603Z,72.50
2019-02-26T07:40:49.249Z,72.70
2019-02-26T07:43:19.965Z,72.70
2019-02-26T07:45:51.293Z,72.60
2019-02-26T07:48:23.592Z,72.40
2019-02-26T07:50:52.034Z,72.10
2019-02-26T07:53:22.702Z,71.90
2019-02-26T07:55:52.494Z,71.20
2019-02-26T07:58:21.930Z,70.70
2019-02-26T08:00:52.236Z,70.80
2019-02-26T08:03:24.339Z,70.80
2019-02-26T08:05:53.091Z,70.80
2019-02-26T08:08:22.535Z,70.20
2019-02-26T08:10:53.140Z,69.90
2019-02-26T08:13:24.381Z,69.60
2019-02-26T08:15:55.133Z,69.50
2019-02-26T08:18:25.003Z,69.50
2019-02-26T08:20:57.261Z,69.10
2019-02-26T08:23:26.349Z,68.80
2019-02-26T08:25:57.840Z,68.60
2019-02-26T08:28:26.891Z,68.20
2019-02-26T08:30:57.304Z,68.00
2019-02-26T08:33:26.863Z,67.60
2019-02-26T08:35:56.290Z,67.20
2019-02-26T08:38:29.393Z,66.80
2019-02-26T08:40:56.751Z,66.00
2019-02-26T08:43:26.171Z,65.20
2019-02-26T08:45:55.637Z,64.60
2019-02-26T08:48:26.958Z,63.90
2019-02-26T08:50:56.173Z,63.10
2019-02-26T08:53:26.682Z,62.20
2019-02-26T08:55:58.787Z,61.60
2019-02-26T08:58:28.247Z,60.90
2019-02-26T09:00:57.787Z,60.10
2019-02-26T09:03:27.182Z,59.20
2019-02-26T09:06:09.930Z,58.70
2019-02-26T09:08:30.071Z,58.00
2019-02-26T09:11:00.769Z,57.80
2019-02-26T09:13:31.651Z,57.20
2019-02-26T09:16:02.889Z,56.80
2019-02-26T09:18:35.536Z,56.00
2019-02-26T09:21:03.119Z,55.80
2019-02-26T09:23:32.896Z,55.60
2019-02-26T09:26:04.433Z,55.00
2019-02-26T09:28:33.626Z,54.00
2019-02-26T09:31:04.720Z,53.60
2019-02-26T09:33:35.610Z,52.90
2019-02-26T09:36:05.282Z,52.30
2019-02-26T09:38:34.758Z,51.50
2019-02-26T09:41:04.178Z,50.60
2019-02-26T09:43:33.590Z,50.30
2019-02-26T09:46:03.997Z,49.70
2019-02-26T09:48:35.800Z,49.40
2019-02-26T09:51:07.013Z,48.60
2019-02-26T09:53:36.201Z,47.90
2019-02-26T09:56:05.602Z,47.10
2019-02-26T09:58:35.018Z,46.80
2019-02-26T10:01:06.292Z,46.30
2019-02-26T10:03:37.273Z,45.80
2019-02-26T10:06:06.595Z,45.70
2019-02-26T10:08:36.036Z,44.20
2019-02-26T10:11:05.469Z,43.70
2019-02-26T10:13:34.883Z,43.60
2019-02-26T10:16:06.336Z,43.30
2019-02-26T10:18:35.411Z,43.60
2019-02-26T10:21:07.603Z,43.40
2019-02-26T10:23:35.915Z,43.20
2019-02-26T10:26:07.599Z,43.40
2019-02-26T10:28:39.376Z,42.90
2019-02-26T10:31:09.633Z,42.40
2019-02-26T10:33:40.651Z,41.80
2019-02-26T10:36:11.183Z,41.70
2019-02-26T10:38:40.536Z,41.50
2019-02-26T10:41:09.934Z,41.30
2019-02-26T10:43:40.097Z,41.40
2019-02-26T10:46:09.678Z,41.10
2019-02-26T10:48:41.059Z,41.00
2019-02-26T10:51:10.155Z,40.80
2019-02-26T10:53:39.584Z,40.40
2019-02-26T10:56:08.983Z,39.60
2019-02-26T10:58:38.410Z,39.80
2019-02-26T11:01:07.818Z,39.60
2019-02-26T11:03:40.734Z,39.70
2019-02-26T11:06:10.774Z,39.40
2019-02-26T11:08:39.607Z,39.40
2019-02-26T11:11:10.040Z,39.10
2019-02-26T11:13:42.584Z,38.80
2019-02-26T11:16:11.134Z,38.60
2019-02-26T11:18:42.524Z,38.30
2019-02-26T11:21:11.598Z,38.20
2019-02-26T11:23:41.976Z,38.00
2019-02-26T11:26:13.146Z,38.10
2019-02-26T11:28:45.416Z,37.80
2019-02-26T11:31:16.520Z,37.70
2019-02-26T11:33:45.268Z,37.50
2019-02-26T11:36:15.718Z,37.40
2019-02-26T11:38:47.013Z,37.30
2019-02-26T11:41:16.515Z,37.30
2019-02-26T11:43:45.964Z,36.70
2019-02-26T11:46:15.434Z,36.50
2019-02-26T11:48:45.676Z,36.80
2019-02-26T11:51:17.667Z,36.80
2019-02-26T11:53:47.000Z,36.60
2019-02-26T11:56:17.790Z,36.20
2019-02-26T11:58:50.385Z,36.70
2019-02-26T12:01:19.820Z,36.90
2019-02-26T12:03:49.304Z,36.20
2019-02-26T12:06:18.708Z,36.40
2019-02-26T12:08:50.063Z,36.90
2019-02-26T12:11:20.316Z,37.70
2019-02-26T12:13:53.028Z,38.70
2019-02-26T12:16:21.348Z,39.20
2019-02-26T12:18:50.745Z,38.40
2019-02-26T12:21:20.174Z,38.80
2019-02-26T12:23:49.702Z,38.70
2019-02-26T12:26:22.019Z,39.20
2019-02-26T12:28:52.414Z,40.20
2019-02-26T12:31:21.350Z,40.40
2019-02-26T12:33:50.770Z,41.20
2019-02-26T12:36:21.290Z,41.10
2019-02-26T12:38:53.675Z,41.00
2019-02-26T12:41:22.345Z,40.70
2019-02-26T12:43:51.810Z,40.80
2019-02-26T12:46:21.729Z,40.50
2019-02-26T12:48:52.255Z,40.50
2019-02-26T12:51:22.629Z,39.80
2019-02-26T12:53:52.711Z,39.40
2019-02-26T12:56:24.204Z,39.60
2019-02-26T12:58:54.567Z,39.20
2019-02-26T13:01:24.273Z,38.90
2019-02-26T13:03:54.963Z,39.30
2019-02-26T13:06:24.756Z,38.40
2019-02-26T13:08:54.183Z,38.30
2019-02-26T13:11:25.097Z,38.20
2019-02-26T13:13:54.583Z,37.90
2019-02-26T13:16:24.026Z,37.90
2019-02-26T13:18:58.417Z,38.10
2019-02-26T13:21:24.474Z,38.20
2019-02-26T13:23:58.668Z,38.10
2019-02-26T13:26:24.935Z,37.60
2019-02-26T13:28:56.084Z,37.50
2019-02-26T13:31:25.420Z,36.90
2019-02-26T13:33:54.943Z,37.10
2019-02-26T13:36:24.373Z,37.00
2019-02-26T13:38:53.783Z,36.20
2019-02-26T13:41:29.851Z,36.10
2019-02-26T13:43:54.227Z,35.90
2019-02-26T13:46:23.635Z,35.60
2019-02-26T13:48:53.050Z,35.30
2019-02-26T13:51:22.482Z,35.60
2019-02-26T13:53:51.877Z,35.60
2019-02-26T13:56:21.321Z,35.30
2019-02-26T13:58:50.727Z,35.40
2019-02-26T14:01:20.175Z,35.60
2019-02-26T14:03:49.660Z,35.80
2019-02-26T14:06:19.079Z,35.10
2019-02-26T14:08:48.477Z,35.60
2019-02-26T14:11:17.911Z,34.50
2019-02-26T14:13:47.325Z,33.80
2019-02-26T14:16:16.744Z,34.40
2019-02-26T14:18:48.147Z,35.00
2019-02-26T14:21:17.212Z,35.30
2019-02-26T14:23:46.645Z,35.10
2019-02-26T14:26:16.287Z,34.40
2019-02-26T14:28:45.695Z,33.10
2019-02-26T14:31:15.147Z,33.60
2019-02-26T14:33:44.555Z,33.00
2019-02-26T14:36:14.076Z,33.30
2019-02-26T14:38:43.504Z,33.50
2019-02-26T14:41:12.920Z,34.20
2019-02-26T14:43:42.643Z,34.10
2019-02-26T14:46:12.065Z,34.20
2019-02-26T14:48:41.491Z,33.50
2019-02-26T14:51:10.918Z,32.70
2019-02-26T14:53:40.404Z,32.60
2019-02-26T14:56:09.839Z,33.30
2019-02-26T14:58:39.247Z,33.80
2019-02-26T15:01:08.713Z,34.10
2019-02-26T15:03:38.119Z,34.10
2019-02-26T15:06:07.560Z,34.70
2019-02-26T15:08:36.962Z,34.20
2019-02-26T15:11:06.392Z,32.90
2019-02-26T15:13:35.808Z,32.70
2019-02-26T15:16:05.251Z,33.00
2019-02-26T15:18:35.783Z,33.10
2019-02-26T15:21:05.615Z,33.70
2019-02-26T15:23:35.051Z,33.90
2019-02-26T15:26:04.483Z,34.20
2019-02-26T15:28:33.953Z,34.30
2019-02-26T15:31:03.331Z,34.00
2019-02-26T15:33:32.778Z,33.60
2019-02-26T15:36:02.141Z,33.90
2019-02-26T15:38:31.674Z,34.10
2019-02-26T15:41:01.082Z,34.20
2019-02-26T15:43:30.543Z,34.20
2019-02-26T15:46:00.386Z,34.40
2019-02-26T15:48:29.939Z,34.70
2019-02-26T15:50:59.359Z,35.20
2019-02-26T15:53:29.187Z,35.50
2019-02-26T15:56:01.527Z,35.60
2019-02-26T15:58:30.947Z,36.00
2019-02-26T16:01:00.360Z,36.50
2019-02-26T16:03:30.160Z,35.50
2019-02-26T16:05:59.780Z,35.10
2019-02-26T16:08:34.640Z,34.80
2019-02-26T16:11:00.681Z,34.80
2019-02-26T16:13:30.143Z,34.90
2019-02-26T16:15:59.963Z,35.10
2019-02-26T16:18:29.626Z,35.60
2019-02-26T16:20:59.508Z,35.80
2019-02-26T16:23:28.935Z,36.10
2019-02-26T16:25:58.385Z,35.90
2019-02-26T16:28:28.010Z,35.90
2019-02-26T16:30:57.668Z,36.20
2019-02-26T16:33:27.071Z,36.60
2019-02-26T16:35:57.884Z,36.60
2019-02-26T16:38:28.129Z,36.90
2019-02-26T16:40:57.554Z,37.40
2019-02-26T16:43:27.723Z,37.10
2019-02-26T16:45:57.267Z,37.30
2019-02-26T16:48:26.708Z,38.40
2019-02-26T16:50:56.189Z,38.00
2019-02-26T16:53:25.698Z,37.80
2019-02-26T16:55:57.330Z,38.10
2019-02-26T16:58:27.171Z,38.30
2019-02-26T17:00:56.635Z,38.50
2019-02-26T17:03:26.741Z,38.90
2019-02-26T17:05:56.276Z,39.40
2019-02-26T17:08:25.796Z,40.10
2019-02-26T17:10:55.217Z,40.90
2019-02-26T17:13:24.645Z,41.50
2019-02-26T17:15:59.258Z,41.90
2019-02-26T17:18:25.764Z,42.30
2019-02-26T17:20:56.987Z,42.80
2019-02-26T17:23:26.204Z,43.20
2019-02-26T17:25:55.609Z,43.50
2019-02-26T17:28:25.225Z,43.80
2019-02-26T17:30:57.475Z,44.20
2019-02-26T17:33:26.228Z,44.70
2019-02-26T17:35:55.642Z,45.10
2019-02-26T17:38:26.076Z,45.40
2019-02-26T17:40:55.656Z,45.70
2019-02-26T17:43:25.243Z,45.90
2019-02-26T17:45:55.474Z,46.30
2019-02-26T17:48:24.907Z,46.50
2019-02-26T17:50:54.626Z,46.80
2019-02-26T17:53:27.651Z,46.90
2019-02-26T17:55:55.108Z,47.00
2019-02-26T17:58:24.534Z,47.30
2019-02-26T18:00:55.605Z,47.30
2019-02-26T18:03:25.735Z,47.60
2019-02-26T18:05:55.477Z,47.90
2019-02-26T18:08:24.897Z,48.20
2019-02-26T18:10:54.414Z,48.70
2019-02-26T18:13:24.010Z,48.80
2019-02-26T18:15:55.927Z,49.20
2019-02-26T18:18:24.654Z,49.20
2019-02-26T18:20:54.404Z,49.50
2019-02-26T18:23:23.934Z,50.10
2019-02-26T18:25:53.525Z,50.20
2019-02-26T18:28:23.199Z,50.40
2019-02-26T18:30:52.876Z,50.80
2019-02-26T18:33:22.926Z,51.10
2019-02-26T18:35:52.670Z,51.70
2019-02-26T18:38:22.121Z,52.20
2019-02-26T18:40:51.560Z,52.20
2019-02-26T18:43:20.977Z,52.30
2019-02-26T18:45:50.399Z,52.60
2019-02-26T18:48:19.814Z,52.60
2019-02-26T18:50:49.319Z,52.80
2019-02-26T18:53:18.719Z,53.00
2019-02-26T18:55:49.802Z,53.40
2019-02-26T18:58:19.205Z,53.50
2019-02-26T19:00:48.670Z,53.90
2019-02-26T19:03:18.050Z,54.00
2019-02-26T19:05:47.523Z,54.30
2019-02-26T19:08:18.824Z,54.50
2019-02-26T19:10:47.988Z,54.90
2019-02-26T19:13:17.666Z,55.10
2019-02-26T19:15:47.928Z,55.30
2019-02-26T19:18:18.139Z,55.40
2019-02-26T19:20:49.130Z,55.60
2019-02-26T19:23:18.604Z,55.60
2019-02-26T19:25:48.052Z,55.70
2019-02-26T19:28:17.490Z,55.90
2019-02-26T19:30:46.919Z,56.10
2019-02-26T19:33:18.682Z,56.20
2019-02-26T19:35:47.415Z,56.60
2019-02-26T19:38:16.892Z,56.60
2019-02-26T19:40:58.267Z,56.60
2019-02-26T19:43:28.871Z,56.70
2019-02-26T19:45:58.562Z,57.10
2019-02-26T19:48:30.411Z,57.30
2019-02-26T19:50:59.076Z,57.50
2019-02-26T19:53:28.492Z,57.60
2019-02-26T19:55:57.971Z,57.70
2019-02-26T19:58:27.355Z,57.90
2019-02-26T20:00:56.808Z,58.20
2019-02-26T20:03:26.230Z,58.40
2019-02-26T20:05:55.697Z,58.40
2019-02-26T20:08:25.326Z,58.80
2019-02-26T20:10:54.773Z,58.80
2019-02-26T20:13:24.187Z,59.50
2019-02-26T20:15:54.942Z,58.90
2019-02-26T20:18:26.184Z,59.10
2019-02-26T20:20:55.711Z,59.00
2019-02-26T20:23:25.146Z,59.20
2019-02-26T20:25:54.592Z,59.20
2019-02-26T20:28:24.047Z,59.40
2019-02-26T20:30:53.482Z,59.50
2019-02-26T20:33:22.911Z,59.80
2019-02-26T20:35:52.343Z,60.10
2019-02-26T20:38:21.828Z,60.20
2019-02-26T20:40:51.316Z,60.00
2019-02-26T20:43:20.761Z,60.20
2019-02-26T20:45:51.079Z,60.70
2019-02-26T20:48:21.277Z,60.70
2019-02-26T20:50:53.550Z,61.00
2019-02-26T20:53:21.986Z,61.10
2019-02-26T20:55:52.743Z,61.20
2019-02-26T20:58:22.545Z,61.20
2019-02-26T21:00:51.982Z,61.10
2019-02-26T21:03:21.786Z,61.20
2019-02-26T21:05:51.366Z,61.60
2019-02-26T21:08:20.870Z,61.90
2019-02-26T21:10:50.341Z,62.40
2019-02-26T21:13:20.585Z,62.40
2019-02-26T21:15:50.035Z,62.40
2019-02-26T21:18:21.315Z,62.60
2019-02-26T21:20:50.991Z,62.60
2019-02-26T21:23:20.451Z,62.50
2019-02-26T21:25:49.874Z,62.70
2019-02-26T21:28:19.502Z,62.40
2019-02-26T21:30:49.007Z,62.50
2019-02-26T21:33:18.415Z,62.50
2019-02-26T21:35:48.108Z,62.60
2019-02-26T21:38:17.575Z,62.60
2019-02-26T21:40:49.433Z,62.50
2019-02-26T21:43:18.106Z,62.60
2019-02-26T21:45:49.379Z,62.80
2019-02-26T21:48:18.669Z,62.80
2019-02-26T21:50:48.101Z,63.00
2019-02-26T21:53:17.536Z,63.30
2019-02-26T21:55:47.089Z,63.40
2019-02-26T21:58:16.506Z,63.60
2019-02-26T22:00:46.046Z,63.70
2019-02-26T22:03:15.493Z,63.80
2019-02-26T22:05:44.974Z,64.10
2019-02-26T22:08:14.434Z,64.10
2019-02-26T22:10:43.850Z,63.60
2019-02-26T22:13:13.405Z,63.80
2019-02-26T22:15:44.568Z,63.60
2019-02-26T22:18:13.919Z,63.70
2019-02-26T22:20:43.420Z,63.70
2019-02-26T22:23:14.839Z,64.00
2019-02-26T22:25:43.972Z,64.30
2019-02-26T22:28:13.384Z,64.20
2019-02-26T22:30:42.901Z,64.20
2019-02-26T22:33:12.347Z,64.50
2019-02-26T22:35:41.786Z,64.40
2019-02-26T22:38:12.665Z,64.70
2019-02-26T22:40:42.265Z,64.80
2019-02-26T22:43:13.789Z,65.20
2019-02-26T22:45:44.017Z,64.60
2019-02-26T22:48:14.152Z,64.20
2019-02-26T22:50:43.622Z,64.30
2019-02-26T22:53:13.123Z,64.50
2019-02-26T22:55:42.569Z,64.60
2019-02-26T22:58:13.836Z,64.50
2019-02-26T23:00:51.065Z,64.50
2019-02-26T23:03:20.464Z,64.40
2019-02-26T23:05:49.893Z,65.00
2019-02-26T23:08:19.339Z,65.60
2019-02-26T23:10:48.794Z,65.80
2019-02-26T23:13:18.259Z,66.30
2019-02-26T23:15:47.700Z,66.30
2019-02-26T23:18:17.190Z,66.50
2019-02-26T23:20:46.624Z,66.80
2019-02-26T23:23:16.087Z,66.30
2019-02-26T23:25:45.498Z,65.70
2019-02-26T23:28:14.993Z,65.90
2019-02-26T23:30:44.430Z,66.20
2019-02-26T23:33:15.241Z,66.20
2019-02-26T23:35:45.107Z,65.90
2019-02-26T23:38:14.539Z,66.20
2019-02-26T23:40:44.010Z,66.40
2019-02-26T23:43:13.418Z,66.10
2019-02-26T23:45:42.872Z,66.10
2019-02-26T23:48:12.451Z,66.30
2019-02-26T23:50:41.870Z,66.90
2019-02-26T23:53:11.361Z,67.00
2019-02-26T23:55:40.751Z,66.40
2019-02-26T23:58:10.272Z,66.00
